Time;durP1;ratioP1;P1;durP2;ratioP2;P2;SDS_P1;SDS_P2;PMS_P1;PMS_P2;Temp;Humidity;BMP_temperature;BMP_pressure;BME280_temperature;BME280_humidity;BME280_pressure;Samples;Min_cycle;Max_cycle;Signal;HPM_P1;HPM_P2
2021/10/12 00:00:20;;;;;;;;;;;;;;;8.89;80.56;97197.81;5072165;28;19954;-77
2021/10/12 00:02:46;;;;;;;;;;;;;;;8.87;80.44;97191.97;5073663;28;20042;-77
2021/10/12 00:05:13;;;;;;;;;;;;;;;8.88;80.39;97187.53;5073337;28;19949;-77
2021/10/12 00:07:39;;;;;;;;;;;;;;;8.86;80.19;97195.59;5073888;28;19954;-77
2021/10/12 00:10:07;;;;;;;;;;;;;;;8.86;80.23;97199.97;5073511;28;20004;-77
2021/10/12 00:12:33;;;;;;;;;;;;;;;8.85;80.14;97198.38;5073290;28;20304;-77
2021/10/12 00:14:59;;;;;;;;;;;;;;;8.83;80.10;97195.94;5073291;28;19966;-77
2021/10/12 00:17:25;;;;;;;;;;;;;;;8.82;80.02;97190.91;5073242;28;20348;-77
2021/10/12 00:19:51;;;;;;;;;;;;;;;8.81;80.05;97186.66;5073738;28;20389;-77
2021/10/12 00:22:17;;;;;;;;;;;;;;;8.80;80.07;97191.09;5073344;28;19963;-77
2021/10/12 00:24:42;;;;;;;;;;;;;;;8.79;80.15;97191.28;5073424;28;20077;-77
2021/10/12 00:27:08;;;;;;;;;;;;;;;8.78;79.99;97194.88;5073060;28;19968;-77
2021/10/12 00:29:34;;;;;;;;;;;;;;;8.76;79.81;97191.63;5073211;28;20053;-77
2021/10/12 00:32:00;;;;;;;;;;;;;;;8.73;79.66;97192.84;5072941;28;20301;-77
2021/10/12 00:34:26;;;;;;;;;;;;;;;8.72;79.54;97186.00;5073487;28;19993;-77
2021/10/12 00:36:52;;;;;;;;;;;;;;;8.68;79.53;97177.72;5071667;28;19961;-79
2021/10/12 00:39:18;;;;;;;;;;;;;;;8.66;79.52;97184.13;5073156;28;20044;-78
2021/10/12 00:41:44;;;;;;;;;;;;;;;8.63;79.36;97174.03;5073176;28;20409;-76
2021/10/12 00:44:11;;;;;;;;;;;;;;;8.58;79.37;97177.22;5072811;28;19957;-77
2021/10/12 00:46:37;;;;;;;;;;;;;;;8.55;79.47;97185.44;5073070;28;19962;-77
2021/10/12 00:49:03;;;;;;;;;;;;;;;8.50;79.00;97183.38;5072806;28;20302;-77
2021/10/12 00:51:29;;;;;;;;;;;;;;;8.46;79.16;97176.91;5072763;28;19961;-76
2021/10/12 00:53:55;;;;;;;;;;;;;;;8.44;79.04;97175.47;5072916;28;19965;-77
2021/10/12 00:56:21;;;;;;;;;;;;;;;8.42;79.18;97180.06;5072748;28;20006;-77
2021/10/12 00:58:47;;;;;;;;;;;;;;;8.40;79.22;97182.03;5072620;28;19953;-77
2021/10/12 01:01:13;;;;;;;;;;;;;;;8.37;79.26;97182.41;5073395;28;19961;-77
2021/10/12 01:03:39;;;;;;;;;;;;;;;8.35;79.55;97174.75;5072741;28;19982;-77
2021/10/12 01:06:05;;;;;;;;;;;;;;;8.33;79.45;97182.75;5072685;28;20296;-76
2021/10/12 01:08:31;;;;;;;;;;;;;;;8.30;79.57;97175.31;5073516;28;20327;-76
2021/10/12 01:10:57;;;;;;;;;;;;;;;8.26;79.39;97179.28;5076265;28;19952;-77
2021/10/12 01:13:24;;;;;;;;;;;;;;;8.25;79.35;97175.06;5076716;28;19959;-77
2021/10/12 01:15:51;;;;;;;;;;;;;;;8.21;79.59;97179.03;5063446;28;19959;-77
2021/10/12 01:18:16;;;;;;;;;;;;;;;8.18;79.55;97181.19;5076393;28;19979;-77
2021/10/12 01:20:43;;;;;;;;;;;;;;;8.16;79.49;97173.53;5076095;28;19988;-78
2021/10/12 01:23:09;;;;;;;;;;;;;;;8.14;79.80;97165.06;5076037;28;19968;-78
2021/10/12 01:25:35;;;;;;;;;;;;;;;8.11;79.64;97163.66;5075943;28;20425;-78
2021/10/12 01:28:01;;;;;;;;;;;;;;;8.13;79.53;97163.47;5074750;28;19962;-78
2021/10/12 01:30:28;;;;;;;;;;;;;;;8.10;79.76;97176.88;5076044;28;19957;-78
2021/10/12 01:32:54;;;;;;;;;;;;;;;8.07;79.66;97170.22;5075919;28;19955;-77
2021/10/12 01:35:20;;;;;;;;;;;;;;;8.05;79.61;97166.19;5075835;28;19959;-77
2021/10/12 01:37:45;;;;;;;;;;;;;;;8.02;79.86;97164.75;5076044;28;19961;-77
2021/10/12 01:40:12;;;;;;;;;;;;;;;8.01;79.79;97157.09;5075669;28;19952;-77
2021/10/12 01:42:38;;;;;;;;;;;;;;;7.99;79.94;97146.03;5076233;28;20326;-77
2021/10/12 01:45:06;;;;;;;;;;;;;;;7.98;79.82;97142.63;5075978;28;19962;-76
2021/10/12 01:47:32;;;;;;;;;;;;;;;7.98;79.88;97144.38;5075671;28;20347;-77
2021/10/12 01:49:58;;;;;;;;;;;;;;;7.96;79.64;97135.94;5076135;28;19989;-77
2021/10/12 01:52:24;;;;;;;;;;;;;;;7.96;79.75;97130.72;5075459;28;20421;-78
2021/10/12 01:54:50;;;;;;;;;;;;;;;7.91;79.47;97129.44;5075472;28;19963;-78
2021/10/12 01:57:18;;;;;;;;;;;;;;;7.90;79.37;97127.84;5075733;28;19979;-78
2021/10/12 01:59:44;;;;;;;;;;;;;;;7.88;79.38;97118.59;5075648;28;19957;-78
2021/10/12 02:02:10;;;;;;;;;;;;;;;7.87;79.36;97132.63;5075862;28;19967;-79
2021/10/12 02:04:36;;;;;;;;;;;;;;;7.84;79.16;97122.56;5075554;28;19956;-79
2021/10/12 02:07:02;;;;;;;;;;;;;;;7.81;79.19;97122.91;5075303;28;19964;-77
2021/10/12 02:09:30;;;;;;;;;;;;;;;7.77;79.35;97117.25;5076097;28;19989;-77
2021/10/12 02:11:56;;;;;;;;;;;;;;;7.75;79.49;97115.81;5075437;28;19953;-77
2021/10/12 02:14:22;;;;;;;;;;;;;;;7.71;79.57;97107.56;5075287;28;19953;-77
2021/10/12 02:16:48;;;;;;;;;;;;;;;7.68;79.63;97111.31;5075178;28;20099;-77
2021/10/12 02:19:14;;;;;;;;;;;;;;;7.68;79.59;97113.13;5074924;28;19960;-77
2021/10/12 02:21:40;;;;;;;;;;;;;;;7.65;79.74;97097.84;5075010;28;20051;-77
2021/10/12 02:24:05;;;;;;;;;;;;;;;7.57;80.09;97087.50;5065859;28;20438;-78
2021/10/12 02:26:31;;;;;;;;;;;;;;;7.53;80.31;97079.22;5074924;28;19964;-77
2021/10/12 02:28:57;;;;;;;;;;;;;;;7.51;80.10;97081.19;5075187;28;19964;-77
2021/10/12 02:31:23;;;;;;;;;;;;;;;7.49;80.13;97083.19;5075235;28;20363;-77
2021/10/12 02:33:49;;;;;;;;;;;;;;;7.49;80.28;97078.75;5074812;28;20503;-77
2021/10/12 02:36:15;;;;;;;;;;;;;;;7.50;80.32;97080.41;5074884;28;19955;-77
2021/10/12 02:38:41;;;;;;;;;;;;;;;7.49;80.75;97083.97;5074692;28;19955;-77
2021/10/12 02:41:07;;;;;;;;;;;;;;;7.50;80.60;97083.00;5074957;28;19951;-77
2021/10/12 02:43:34;;;;;;;;;;;;;;;7.50;80.88;97074.38;5075073;28;19955;-77
2021/10/12 02:45:59;;;;;;;;;;;;;;;7.48;80.92;97071.94;5074586;28;19954;-77
2021/10/12 02:48:25;;;;;;;;;;;;;;;7.49;81.18;97083.19;5074555;28;19997;-77
2021/10/12 02:50:51;;;;;;;;;;;;;;;7.47;81.18;97075.53;5074159;28;19958;-77
2021/10/12 02:53:20;;;;;;;;;;;;;;;7.47;81.12;97075.53;5075014;28;20040;-77
2021/10/12 02:55:46;;;;;;;;;;;;;;;7.48;81.14;97063.31;5074284;28;19965;-76
2021/10/12 02:58:12;;;;;;;;;;;;;;;7.47;81.22;97056.44;5074713;28;19971;-76
2021/10/12 03:00:38;;;;;;;;;;;;;;;7.49;81.58;97057.88;5074428;28;19951;-76
2021/10/12 03:03:03;;;;;;;;;;;;;;;7.50;81.46;97056.09;5074480;28;20429;-76
2021/10/12 03:05:29;;;;;;;;;;;;;;;7.50;81.56;97043.84;5074577;28;19965;-76
2021/10/12 03:07:55;;;;;;;;;;;;;;;7.51;81.36;97042.03;5074237;28;19961;-76
2021/10/12 03:10:21;;;;;;;;;;;;;;;7.50;81.65;97036.03;5074158;28;19961;-78
2021/10/12 03:12:47;;;;;;;;;;;;;;;7.52;81.64;97039.25;5072979;28;19959;-78
2021/10/12 03:15:13;;;;;;;;;;;;;;;7.52;81.64;97030.63;5074214;28;20043;-79
2021/10/12 03:17:39;;;;;;;;;;;;;;;7.51;81.65;97027.19;5073884;28;20124;-76
2021/10/12 03:20:06;;;;;;;;;;;;;;;7.51;81.61;97023.78;5073667;28;20045;-76
2021/10/12 03:22:32;;;;;;;;;;;;;;;7.52;81.70;97012.38;5074215;28;19973;-76
2021/10/12 03:24:58;;;;;;;;;;;;;;;7.50;81.74;97009.94;5074185;28;20400;-76
2021/10/12 03:27:24;;;;;;;;;;;;;;;7.50;81.65;97006.53;5073849;28;19965;-76
2021/10/12 03:29:50;;;;;;;;;;;;;;;7.49;81.67;97004.88;5074077;28;19962;-77
2021/10/12 03:32:15;;;;;;;;;;;;;;;7.48;82.09;97003.28;5072240;28;19966;-78
2021/10/12 03:34:42;;;;;;;;;;;;;;;7.47;81.46;96994.63;5073853;28;19994;-78
2021/10/12 03:37:08;;;;;;;;;;;;;;;7.47;81.52;96992.00;5073591;28;19961;-78
2021/10/12 03:39:34;;;;;;;;;;;;;;;7.48;81.69;96988.44;5074068;28;20403;-77
2021/10/12 03:42:00;;;;;;;;;;;;;;;7.48;81.58;96991.03;5062490;28;20427;-77
2021/10/12 03:44:26;;;;;;;;;;;;;;;7.49;81.91;96999.66;5073666;28;19967;-78
2021/10/12 03:46:52;;;;;;;;;;;;;;;7.51;81.91;97008.13;5073764;28;19965;-78
2021/10/12 03:49:17;;;;;;;;;;;;;;;7.50;82.07;96996.09;5073910;28;19963;-77
2021/10/12 03:51:43;;;;;;;;;;;;;;;7.48;81.92;96996.25;5073382;28;20047;-79
2021/10/12 03:54:10;;;;;;;;;;;;;;;7.49;82.04;96995.25;5073716;28;19964;-77
2021/10/12 03:56:36;;;;;;;;;;;;;;;7.49;81.97;97005.69;5073751;28;19959;-77
2021/10/12 03:59:02;;;;;;;;;;;;;;;7.50;82.16;97003.91;5073478;28;20341;-77
2021/10/12 04:01:28;;;;;;;;;;;;;;;7.51;82.21;97006.31;5073369;28;19950;-78
2021/10/12 04:03:54;;;;;;;;;;;;;;;7.52;82.14;96994.09;5073755;28;20013;-78
2021/10/12 04:06:20;;;;;;;;;;;;;;;7.52;82.03;96997.50;5073655;28;19961;-78
2021/10/12 04:08:46;;;;;;;;;;;;;;;7.53;81.94;97006.94;5073572;28;19962;-78
2021/10/12 04:11:12;;;;;;;;;;;;;;;7.53;82.23;97004.31;5073307;28;19958;-78
2021/10/12 04:13:38;;;;;;;;;;;;;;;7.53;82.23;97004.31;5073369;28;19958;-78
2021/10/12 04:16:04;;;;;;;;;;;;;;;7.52;82.26;97013.16;5073398;28;20417;-78
2021/10/12 04:18:30;;;;;;;;;;;;;;;7.54;82.48;97007.78;5073186;28;19970;-78
2021/10/12 04:20:56;;;;;;;;;;;;;;;7.54;82.41;97007.78;5061897;28;19950;-78
2021/10/12 04:23:22;;;;;;;;;;;;;;;7.55;82.83;97003.34;5073192;28;19963;-79
2021/10/12 04:25:48;;;;;;;;;;;;;;;7.54;82.62;97005.16;5073400;28;20014;-79
2021/10/12 04:28:14;;;;;;;;;;;;;;;7.54;82.69;97007.78;5073174;28;19959;-79
2021/10/12 04:30:40;;;;;;;;;;;;;;;7.55;82.86;96998.13;5073282;28;20441;-79
2021/10/12 04:33:06;;;;;;;;;;;;;;;7.56;82.87;96999.72;5073128;28;19951;-79
2021/10/12 04:35:32;;;;;;;;;;;;;;;7.56;82.71;96991.91;5073052;28;20494;-77
2021/10/12 04:37:58;;;;;;;;;;;;;;;7.57;82.89;96986.50;5073204;28;20336;-77
2021/10/12 04:40:25;;;;;;;;;;;;;;;7.56;82.88;96990.13;5073576;28;20036;-77
2021/10/12 04:42:51;;;;;;;;;;;;;;;7.57;83.00;96998.75;5074317;28;19953;-77
2021/10/12 04:45:17;;;;;;;;;;;;;;;7.56;83.06;96987.50;5076954;28;19964;-77
2021/10/12 04:47:43;;;;;;;;;;;;;;;7.57;83.00;96983.91;5077002;28;19947;-78
2021/10/12 04:50:09;;;;;;;;;;;;;;;7.58;82.80;96979.47;5076930;28;20040;-78
2021/10/12 04:52:36;;;;;;;;;;;;;;;7.58;82.76;96976.88;5076828;28;19975;-78
2021/10/12 04:55:02;;;;;;;;;;;;;;;7.58;82.89;96976.88;5076779;28;20019;-78
2021/10/12 04:57:28;;;;;;;;;;;;;;;7.59;82.81;96978.50;5076546;28;19977;-78
2021/10/12 04:59:54;;;;;;;;;;;;;;;7.60;82.99;96985.31;5076786;28;20323;-78
2021/10/12 05:02:20;;;;;;;;;;;;;;;7.60;83.21;96978.31;5076447;28;20006;-78
2021/10/12 05:04:46;;;;;;;;;;;;;;;7.59;82.74;96981.91;5076673;28;20401;-78
2021/10/12 05:07:12;;;;;;;;;;;;;;;7.59;82.86;96978.50;5076633;28;19961;-78
2021/10/12 05:09:38;;;;;;;;;;;;;;;7.58;83.07;96977.69;5076255;28;19954;-78
2021/10/12 05:12:04;;;;;;;;;;;;;;;7.57;83.03;96978.66;5076568;28;20058;-77
2021/10/12 05:14:30;;;;;;;;;;;;;;;7.57;83.12;96977.88;5076526;28;20416;-77
2021/10/12 05:16:59;;;;;;;;;;;;;;;7.55;83.37;96970.22;5076639;28;20454;-76
2021/10/12 05:19:25;;;;;;;;;;;;;;;7.52;83.32;96966.19;5076103;28;19956;-76
2021/10/12 05:21:51;;;;;;;;;;;;;;;7.46;82.58;96972.16;5076549;28;19965;-75
2021/10/12 05:24:17;;;;;;;;;;;;;;;7.44;83.47;96971.53;5076016;28;19982;-74
2021/10/12 05:26:43;;;;;;;;;;;;;;;7.44;83.46;96968.91;5076103;28;19952;-74
2021/10/12 05:29:09;;;;;;;;;;;;;;;7.46;84.03;96971.34;5075923;28;19949;-74
2021/10/12 05:31:35;;;;;;;;;;;;;;;7.47;84.11;96971.13;5076000;28;19951;-74
2021/10/12 05:34:01;;;;;;;;;;;;;;;7.47;84.29;96967.72;5075888;28;20005;-74
2021/10/12 05:36:27;;;;;;;;;;;;;;;7.49;84.42;96966.53;5075886;28;19957;-74
2021/10/12 05:38:53;;;;;;;;;;;;;;;7.50;84.22;96964.75;5075680;28;19971;-74
2021/10/12 05:41:19;;;;;;;;;;;;;;;7.51;84.27;96964.56;5076066;28;20052;-74
2021/10/12 05:43:46;;;;;;;;;;;;;;;7.50;84.46;96960.34;5075682;28;19954;-74
2021/10/12 05:46:12;;;;;;;;;;;;;;;7.51;84.66;96958.53;5065810;28;19956;-74
2021/10/12 05:48:38;;;;;;;;;;;;;;;7.52;84.63;96952.34;5075649;28;19954;-75
2021/10/12 05:51:05;;;;;;;;;;;;;;;7.52;84.46;96952.34;5075569;28;19960;-76
2021/10/12 05:53:34;;;;;;;;;;;;;;;7.52;84.59;96954.94;5075747;28;19993;-75
2021/10/12 05:58:30;;;;;;;;;;;;;;;7.50;84.63;96949.91;5074206;28;19962;-75
2021/10/12 06:00:57;;;;;;;;;;;;;;;7.51;84.74;96953.31;5075736;28;19954;-76
2021/10/12 06:03:23;;;;;;;;;;;;;;;7.51;85.42;96954.13;5075528;28;19953;-75
2021/10/12 06:05:49;;;;;;;;;;;;;;;7.51;85.29;96953.31;5075490;28;19954;-75
2021/10/12 06:08:14;;;;;;;;;;;;;;;7.51;85.02;96950.72;5075361;28;19981;-74
2021/10/12 06:10:40;;;;;;;;;;;;;;;7.49;85.35;96960.53;5075312;28;19994;-75
2021/10/12 06:13:11;;;;;;;;;;;;;;;7.50;85.69;96960.34;5065520;28;20352;-76
2021/10/12 06:15:38;;;;;;;;;;;;;;;7.47;85.47;96954.69;5064289;28;19955;-75
2021/10/12 06:18:04;;;;;;;;;;;;;;;7.46;85.64;96956.50;5074884;28;19966;-75
2021/10/12 06:20:30;;;;;;;;;;;;;;;7.44;85.23;96955.88;5074810;28;19961;-75
2021/10/12 06:22:56;;;;;;;;;;;;;;;7.46;85.52;96953.88;5075176;28;19955;-75
2021/10/12 06:25:22;;;;;;;;;;;;;;;7.48;85.59;96951.88;5074813;28;19954;-75
2021/10/12 06:27:48;;;;;;;;;;;;;;;7.52;85.57;96952.34;5075237;28;19965;-75
2021/10/12 06:30:14;;;;;;;;;;;;;;;7.55;85.82;96958.97;5074841;28;20383;-76
2021/10/12 06:32:40;;;;;;;;;;;;;;;7.55;85.34;96958.97;5075219;28;19959;-76
2021/10/12 06:35:06;;;;;;;;;;;;;;;7.55;85.04;96957.16;5061312;28;19989;-76
2021/10/12 06:37:32;;;;;;;;;;;;;;;7.58;85.24;96963.81;5074768;28;20336;-76
2021/10/12 06:39:58;;;;;;;;;;;;;;;7.59;85.91;96961.03;5073597;28;19993;-76
2021/10/12 06:42:24;;;;;;;;;;;;;;;7.60;85.83;96967.88;5074750;28;20047;-75
2021/10/12 06:44:50;;;;;;;;;;;;;;;7.84;95.51;96963.28;5074742;28;19954;-74
2021/10/12 06:47:16;;;;;;;;;;;;;;;8.25;97.77;96958.19;5074598;28;20002;-74
2021/10/12 06:49:42;;;;;;;;;;;;;;;8.61;90.21;96961.63;5074703;28;19967;-76
2021/10/12 06:52:08;;;;;;;;;;;;;;;8.66;85.28;96967.09;5074625;28;20405;-76
2021/10/12 06:54:34;;;;;;;;;;;;;;;8.60;83.99;96966.06;5074340;28;19956;-76
2021/10/12 06:57:02;;;;;;;;;;;;;;;8.52;83.61;96972.28;5063749;28;19960;-76
2021/10/12 06:59:28;;;;;;;;;;;;;;;8.44;83.88;96976.81;5074182;28;19971;-76
2021/10/12 07:01:54;;;;;;;;;;;;;;;8.35;84.18;96983.97;5074357;28;19953;-76
2021/10/12 07:04:21;;;;;;;;;;;;;;;8.26;84.70;96990.34;5074136;28;19957;-75
2021/10/12 07:06:47;;;;;;;;;;;;;;;8.18;84.87;96975.59;5073287;28;20324;-75
2021/10/12 07:09:16;;;;;;;;;;;;;;;8.13;85.24;96980.59;5074072;28;19984;-76
2021/10/12 07:11:42;;;;;;;;;;;;;;;8.09;88.11;96979.34;5074139;28;19953;-75
2021/10/12 07:14:07;;;;;;;;;;;;;;;8.12;86.40;96974.53;5074347;28;20004;-75
2021/10/12 07:16:33;;;;;;;;;;;;;;;8.11;86.00;96983.38;5074232;28;19959;-75
2021/10/12 07:18:59;;;;;;;;;;;;;;;8.11;86.08;96982.59;5073787;28;20051;-76
2021/10/12 07:21:25;;;;;;;;;;;;;;;8.11;86.21;96990.44;5074244;28;19972;-75
2021/10/12 07:23:52;;;;;;;;;;;;;;;8.10;86.00;96986.19;5074159;28;19951;-75
2021/10/12 07:26:18;;;;;;;;;;;;;;;8.09;86.09;96984.56;5074189;28;19950;-75
2021/10/12 07:28:44;;;;;;;;;;;;;;;8.07;86.13;96987.38;5074083;28;19954;-75
2021/10/12 07:31:10;;;;;;;;;;;;;;;8.08;86.29;96993.41;5073862;28;19957;-75
2021/10/12 07:33:36;;;;;;;;;;;;;;;8.07;86.56;96992.59;5073787;28;19959;-75
2021/10/12 07:36:03;;;;;;;;;;;;;;;8.07;86.42;96987.38;5073991;28;19985;-74
2021/10/12 07:38:29;;;;;;;;;;;;;;;8.06;86.17;96983.16;5073539;28;19969;-74
2021/10/12 07:40:55;;;;;;;;;;;;;;;8.07;87.28;96978.75;5073916;28;19961;-74
2021/10/12 07:43:21;;;;;;;;;;;;;;;8.09;85.94;96974.13;5073571;28;19958;-74
2021/10/12 07:45:48;;;;;;;;;;;;;;;8.05;85.37;96978.91;5073574;28;19954;-74
2021/10/12 07:48:15;;;;;;;;;;;;;;;8.08;85.92;96985.56;5073554;28;20428;-75
2021/10/12 07:50:41;;;;;;;;;;;;;;;8.08;86.26;96985.56;5074039;28;19951;-74
2021/10/12 07:53:07;;;;;;;;;;;;;;;8.08;86.00;96983.78;5073397;28;19988;-75
2021/10/12 07:55:38;;;;;;;;;;;;;;;8.11;86.08;96983.38;5073743;28;20329;-75
2021/10/12 07:58:03;;;;;;;;;;;;;;;8.13;86.32;96978.78;5073666;28;19974;-75
2021/10/12 08:00:31;;;;;;;;;;;;;;;8.16;86.50;96974.19;5073763;28;19960;-75
2021/10/12 08:02:57;;;;;;;;;;;;;;;8.23;92.89;96968.00;5073455;28;19951;-76
2021/10/12 08:05:25;;;;;;;;;;;;;;;8.50;92.01;96963.81;5073470;28;19961;-75
2021/10/12 08:07:52;;;;;;;;;;;;;;;8.58;86.25;96957.59;5073334;28;19948;-75
2021/10/12 08:10:18;;;;;;;;;;;;;;;8.60;86.63;96946.97;5073768;28;19953;-75
2021/10/12 08:12:45;;;;;;;;;;;;;;;8.57;86.51;96936.88;5073337;28;20337;-75
2021/10/12 08:15:12;;;;;;;;;;;;;;;8.44;86.79;96940.22;5073409;28;19952;-75
2021/10/12 08:17:38;;;;;;;;;;;;;;;8.41;87.32;96945.84;5074587;28;19957;-75
2021/10/12 08:20:05;;;;;;;;;;;;;;;8.40;88.48;96957.25;5077792;28;20404;-76
2021/10/12 08:22:31;;;;;;;;;;;;;;;8.33;87.97;96954.59;5077329;28;19961;-75
2021/10/12 08:24:57;;;;;;;;;;;;;;;8.29;88.58;96950.75;5077280;28;19998;-75
2021/10/12 08:27:22;;;;;;;;;;;;;;;8.22;88.11;96961.16;5077319;28;20442;-75
2021/10/12 08:29:48;;;;;;;;;;;;;;;8.21;88.82;96954.34;5077349;28;19955;-75
2021/10/12 08:32:14;;;;;;;;;;;;;;;8.18;88.80;96952.09;5077348;28;20047;-75
2021/10/12 08:34:40;;;;;;;;;;;;;;;8.18;88.71;96946.06;5077032;28;19999;-75
2021/10/12 08:37:06;;;;;;;;;;;;;;;8.20;89.31;96950.09;5077174;28;19958;-75
2021/10/12 08:39:33;;;;;;;;;;;;;;;8.21;88.28;96941.28;5076912;28;19996;-75
2021/10/12 08:42:29;;;;;;;;;;;;;;;8.25;89.44;96939.06;5076975;28;19960;-75
2021/10/12 08:44:56;;;;;;;;;;;;;;;8.27;88.71;96947.53;5072224;28;20034;-75
2021/10/12 08:47:23;;;;;;;;;;;;;;;8.33;88.48;96950.16;5076668;28;20420;-75
2021/10/12 08:49:49;;;;;;;;;;;;;;;8.32;87.61;96950.38;5076725;28;19965;-75
2021/10/12 08:52:15;;;;;;;;;;;;;;;8.28;87.84;96946.53;5076587;28;19978;-76
2021/10/12 08:54:41;;;;;;;;;;;;;;;8.27;88.71;96947.53;5076823;28;20430;-75
2021/10/12 08:57:07;;;;;;;;;;;;;;;8.24;88.86;96948.72;5076928;28;20400;-74
2021/10/12 08:59:33;;;;;;;;;;;;;;;8.27;88.50;96947.53;5076673;28;19967;-75
2021/10/12 09:02:04;;;;;;;;;;;;;;;8.28;88.20;96949.16;5076498;28;19962;-75
2021/10/12 09:04:37;;;;;;;;;;;;;;;8.26;87.77;96948.53;5076793;28;19965;-75
2021/10/12 09:07:03;;;;;;;;;;;;;;;8.27;88.29;96937.91;5076797;28;20323;-75
2021/10/12 09:09:36;;;;;;;;;;;;;;;8.34;88.16;96943.16;5076553;28;20314;-76
2021/10/12 09:12:02;;;;;;;;;;;;;;;8.36;88.77;96938.56;5076840;28;19949;-75
2021/10/12 09:14:28;;;;;;;;;;;;;;;8.33;88.75;96934.50;5076291;28;20419;-75
2021/10/12 09:17:02;;;;;;;;;;;;;;;8.37;88.69;96939.34;5076275;28;20013;-75
2021/10/12 09:19:30;;;;;;;;;;;;;;;8.43;88.81;96928.97;5076826;28;19972;-75
2021/10/12 09:21:57;;;;;;;;;;;;;;;8.47;88.72;96929.41;5076329;28;19958;-76
2021/10/12 09:24:24;;;;;;;;;;;;;;;8.46;87.90;96919.94;5076344;28;19956;-75
2021/10/12 09:26:55;;;;;;;;;;;;;;;8.50;87.83;96923.78;5076225;28;19947;-75
2021/10/12 09:29:38;;;;;;;;;;;;;;;8.59;88.86;96920.00;5075220;28;19955;-75
2021/10/12 09:32:05;;;;;;;;;;;;;;;8.69;88.18;96917.84;5076419;28;19966;-75
2021/10/12 09:34:32;;;;;;;;;;;;;;;8.74;88.66;96915.47;5074751;28;19967;-75
2021/10/12 09:36:58;;;;;;;;;;;;;;;8.80;87.90;96911.25;5075942;28;20366;-75
2021/10/12 09:39:27;;;;;;;;;;;;;;;8.84;87.40;96909.03;5075597;28;19968;-75
2021/10/12 09:41:57;;;;;;;;;;;;;;;8.86;87.04;96901.81;5076221;28;20326;-75
2021/10/12 09:44:24;;;;;;;;;;;;;;;8.90;87.79;96901.25;5075865;28;19946;-75
2021/10/12 09:46:51;;;;;;;;;;;;;;;9.02;87.97;96895.44;5075993;28;19983;-75
2021/10/12 09:49:21;;;;;;;;;;;;;;;9.11;88.53;96889.84;5075768;28;19957;-75
2021/10/12 09:51:54;;;;;;;;;;;;;;;9.17;87.20;96888.22;5074184;28;19963;-75
2021/10/12 09:54:21;;;;;;;;;;;;;;;9.16;86.30;96896.31;5076293;28;19950;-75
2021/10/12 09:56:48;;;;;;;;;;;;;;;9.18;86.49;96887.25;5075776;28;19955;-75
2021/10/12 09:59:14;;;;;;;;;;;;;;;9.19;85.99;96888.84;5075680;28;20434;-75
2021/10/12 10:01:42;;;;;;;;;;;;;;;9.19;85.66;96888.84;5075654;28;19953;-75
2021/10/12 10:04:10;;;;;;;;;;;;;;;9.19;86.26;96888.03;5075436;28;19952;-75
2021/10/12 10:06:37;;;;;;;;;;;;;;;9.10;85.91;96887.41;5075742;28;19950;-75
2021/10/12 10:09:03;;;;;;;;;;;;;;;9.05;86.52;96880.16;5075260;28;19961;-75
2021/10/12 10:11:31;;;;;;;;;;;;;;;8.99;86.36;96885.34;5075642;28;19960;-75
2021/10/12 10:13:58;;;;;;;;;;;;;;;8.94;86.73;96881.53;5075616;28;20427;-75
2021/10/12 10:16:25;;;;;;;;;;;;;;;8.94;87.57;96881.53;5075301;28;19961;-76
2021/10/12 10:18:51;;;;;;;;;;;;;;;9.01;88.22;96875.50;5075018;28;19978;-75
2021/10/12 10:21:17;;;;;;;;;;;;;;;9.04;87.03;96873.31;5075429;28;19957;-76
2021/10/12 10:23:46;;;;;;;;;;;;;;;9.06;87.11;96883.59;5075220;28;20027;-75
2021/10/12 10:26:22;;;;;;;;;;;;;;;9.07;87.50;96877.34;5074982;28;19960;-75
2021/10/12 10:28:49;;;;;;;;;;;;;;;9.03;87.09;96870.88;5075125;28;19977;-75
2021/10/12 10:31:15;;;;;;;;;;;;;;;8.97;87.48;96875.09;5074932;28;20290;-75
2021/10/12 10:33:40;;;;;;;;;;;;;;;8.91;87.91;96863.63;5074727;28;19960;-74
2021/10/12 10:36:07;;;;;;;;;;;;;;;8.91;88.48;96857.59;5073534;28;19960;-75
2021/10/12 10:38:42;;;;;;;;;;;;;;;8.92;88.22;96853.94;5075178;28;19968;-75
2021/10/12 10:41:10;;;;;;;;;;;;;;;8.94;88.71;96858.00;5074608;28;19954;-74
2021/10/12 10:43:48;;;;;;;;;;;;;;;8.98;88.28;96849.75;5074653;28;19960;-74
2021/10/12 10:46:35;;;;;;;;;;;;;;;8.99;88.64;96853.97;5074493;28;19950;-74
2021/10/12 10:49:09;;;;;;;;;;;;;;;9.01;88.87;96858.03;5074686;28;19947;-74
2021/10/12 10:51:47;;;;;;;;;;;;;;;9.04;88.60;96855.00;5074287;28;19966;-75
2021/10/12 10:54:32;;;;;;;;;;;;;;;9.08;88.92;96856.22;5074584;28;20448;-75
2021/10/12 10:57:11;;;;;;;;;;;;;;;9.13;87.93;96850.38;5074310;28;19952;-74
2021/10/12 10:59:37;;;;;;;;;;;;;;;9.17;88.22;96837.72;5073412;28;19976;-74
2021/10/12 11:02:22;;;;;;;;;;;;;;;9.21;88.57;96833.69;5074627;28;19957;-74
2021/10/12 11:04:49;;;;;;;;;;;;;;;9.28;87.17;96832.72;5060307;28;19955;-74
2021/10/12 11:07:18;;;;;;;;;;;;;;;9.34;86.67;96826.69;5074123;28;19960;-76
2021/10/12 11:09:45;;;;;;;;;;;;;;;9.45;87.34;96822.66;5074834;28;19960;-74
2021/10/12 11:12:21;;;;;;;;;;;;;;;9.58;86.83;96823.66;5074102;28;20311;-74
2021/10/12 11:14:47;;;;;;;;;;;;;;;9.69;86.90;96815.19;5074068;28;19955;-74
2021/10/12 11:17:13;;;;;;;;;;;;;;;9.78;86.39;96821.81;5074063;28;19948;-74
2021/10/12 11:19:55;;;;;;;;;;;;;;;9.89;86.57;96809.91;5060406;28;20459;-74
2021/10/12 11:22:21;;;;;;;;;;;;;;;10.00;86.35;96808.50;5073891;28;20020;-75
2021/10/12 11:24:47;;;;;;;;;;;;;;;10.04;85.52;96805.25;5073975;28;19968;-74
2021/10/12 11:27:13;;;;;;;;;;;;;;;10.05;83.49;96801.63;5073926;28;19958;-74
2021/10/12 11:29:39;;;;;;;;;;;;;;;10.04;83.04;96800.03;5073690;28;19963;-74
2021/10/12 11:32:05;;;;;;;;;;;;;;;10.03;83.66;96792.34;5074207;28;19948;-74
2021/10/12 11:34:33;;;;;;;;;;;;;;;10.03;84.06;96787.13;5073850;28;19958;-74
2021/10/12 11:37:08;;;;;;;;;;;;;;;9.99;84.28;96785.91;5074029;28;20311;-74
2021/10/12 11:39:34;;;;;;;;;;;;;;;9.96;83.88;96784.53;5073609;28;20360;-74
2021/10/12 11:42:01;;;;;;;;;;;;;;;9.91;84.18;96790.38;5073514;28;20419;-75
2021/10/12 11:44:27;;;;;;;;;;;;;;;9.88;85.30;96787.34;5073294;28;19957;-75
2021/10/12 11:47:00;;;;;;;;;;;;;;;9.84;84.60;96780.91;5073575;28;20296;-75
2021/10/12 11:49:26;;;;;;;;;;;;;;;9.84;84.77;96773.84;5073854;28;19954;-75
2021/10/12 11:51:53;;;;;;;;;;;;;;;9.86;84.89;96768.41;5073106;28;20020;-75
2021/10/12 11:54:20;;;;;;;;;;;;;;;9.87;84.81;96759.53;5073951;28;20409;-75
2021/10/12 11:56:46;;;;;;;;;;;;;;;9.89;85.07;96760.97;5073454;28;19948;-75
2021/10/12 11:59:12;;;;;;;;;;;;;;;9.95;85.53;96761.94;5073503;28;19965;-75
2021/10/12 12:01:41;;;;;;;;;;;;;;;9.98;83.36;96760.75;5074002;28;20446;-75
2021/10/12 12:04:08;;;;;;;;;;;;;;;10.04;83.67;96762.53;5073301;28;19949;-74
2021/10/12 12:06:35;;;;;;;;;;;;;;;10.14;84.02;96747.97;5073474;28;19965;-75
2021/10/12 12:09:22;;;;;;;;;;;;;;;10.24;85.21;96742.28;5073500;28;19960;-76
2021/10/12 12:11:49;;;;;;;;;;;;;;;10.34;84.48;96747.13;5073407;28;19956;-75
2021/10/12 12:14:15;;;;;;;;;;;;;;;10.41;82.42;96740.03;5073311;28;19950;-75
2021/10/12 12:16:41;;;;;;;;;;;;;;;10.52;82.17;96738.53;5073572;28;19957;-75
2021/10/12 12:19:23;;;;;;;;;;;;;;;10.63;81.82;96742.34;5073478;28;19979;-75
2021/10/12 12:21:50;;;;;;;;;;;;;;;10.80;81.01;96725.09;5063536;28;19970;-75
2021/10/12 12:24:20;;;;;;;;;;;;;;;10.94;81.73;96729.22;5073572;28;19949;-76
2021/10/12 12:26:46;;;;;;;;;;;;;;;11.06;81.38;96726.69;5073155;28;19953;-75
2021/10/12 12:29:16;;;;;;;;;;;;;;;11.10;78.38;96722.63;5073292;28;19955;-76
2021/10/12 12:31:46;;;;;;;;;;;;;;;11.13;78.48;96724.84;5058695;28;19948;-76
2021/10/12 12:34:22;;;;;;;;;;;;;;;11.14;77.50;96715.16;5073129;28;20323;-76
2021/10/12 12:36:48;;;;;;;;;;;;;;;11.08;75.56;96714.16;5073112;28;19952;-76
2021/10/12 12:39:14;;;;;;;;;;;;;;;11.02;77.32;96716.84;5073331;28;19979;-76
2021/10/12 12:41:42;;;;;;;;;;;;;;;10.97;75.05;96712.25;5072966;28;20427;-76
2021/10/12 12:44:08;;;;;;;;;;;;;;;10.91;76.96;96711.28;5073069;28;19977;-76
2021/10/12 12:46:35;;;;;;;;;;;;;;;10.85;76.40;96714.75;5073260;28;20415;-76
2021/10/12 12:49:13;;;;;;;;;;;;;;;10.77;75.38;96704.50;5072785;28;20401;-77
2021/10/12 12:51:46;;;;;;;;;;;;;;;10.69;74.01;96705.59;5073298;28;19962;-76
2021/10/12 12:54:31;;;;;;;;;;;;;;;10.61;76.52;96710.28;5073077;28;19962;-76
2021/10/12 12:57:14;;;;;;;;;;;;;;;10.53;76.66;96712.13;5072954;28;19955;-77